Flight Track Log - Related Links

Times and Time Zones

All times are in EDT time to prevent confusion due to time zone crossing. See the DAL2369 flight status page for this flight to view local times or setup timezone preferences in your user account.


Time Position Orientation Groundspeed Altitude Reporting Facility
EDT Latitude Longitude Course Direction KTS MPH feet Rate Location/Type
Mon 01:00:22 PM 33.6400 -84.4350 272° West  Level FlightAware ADS-B
Mon 01:01:57 PM 33.6400 -84.4340 90° East 2 2 88 Level FlightAware ADS-B
Mon 01:04:00 PM 33.5559 -84.2667 180° South  Level FlightAware Approximate
Mon 01:04:31 PM 33.6390 -84.4340 180° South 22 25  Level FlightAware ADS-B
Mon 01:04:55 PM 33.6380 -84.4340 180° South 12 14 132 Level FlightAware ADS-B
Mon 01:05:34 PM 33.6370 -84.4340 180° South 23 26 139 Level FlightAware ADS-B
Mon 01:06:08 PM 33.6370 -84.4330 90° East 14 16 151 Level FlightAware ADS-B
Mon 01:07:15 PM 33.6370 -84.4310 90° East 28 32 164 Level FlightAware ADS-B
Mon 01:07:38 PM 33.6370 -84.4290 90° East 31 36 196 Level FlightAware ADS-B
Mon 01:08:11 PM 33.6370 -84.4260 90° East 15 17 211 Level FlightAware ADS-B
Mon 01:08:54 PM 33.6370 -84.4220 90° East 16 18 236 Level FlightAware ADS-B
Mon 01:09:51 PM 33.6360 -84.4170 104° East 34 39 278 Level FlightAware ADS-B
Mon 01:10:05 PM 33.6360 -84.4160 90° East 15 17 367 Level FlightAware ADS-B
Mon 01:10:43 PM 33.6360 -84.4130 90° East 16 18 398 Level FlightAware ADS-B
Mon 01:11:16 PM 33.6370 -84.4100 68° East 18 21 516 Level FlightAware ADS-B
Mon 01:11:42 PM 33.6350 -84.4080 140° Southeast 19 22 695 Level FlightAware ADS-B
Mon 01:12:11 PM 33.6360 -84.4100 301° West 43 49 957 Level FlightAware ADS-B
Mon 01:12:51 PM 33.6360 -84.4440 270° West 195 224 1,100 2,118 Climbing FlightAware ADS-B
Mon 01:13:19 PM 33.6350 -84.4740 268° West 196 226 2,400 2,429 Climbing FlightAware ADS-B
Mon 01:13:33 PM 33.6350 -84.4900 270° West 211 243 2,800 1,500 Climbing FlightAware ADS-B
Mon 01:13:59 PM 33.6360 -84.5220 272° West 245 282 3,400 2,423 Climbing FlightAware ADS-B
Mon 01:14:25 PM 33.6360 -84.5580 270° West 241 277 4,900 3,000 Climbing FlightAware ADS-B
Mon 01:14:55 PM 33.6360 -84.5990 270° West 256 295 6,200 2,649 Climbing FlightAware ADS-B
Mon 01:15:42 PM 33.6240 -84.6620 257° West 269 310 8,300 2,710 Climbing FlightAware ADS-B
Mon 01:15:57 PM 33.6080 -84.6760 216° Southwest 276 318 9,000 2,640 Climbing FlightAware ADS-B
Mon 01:16:07 PM 33.5970 -84.6840 211° Southwest 274 315 9,400 1,750 Climbing FlightAware ADS-B
Mon 01:16:21 PM 33.5800 -84.6930 204° Southwest 283 326 9,700 1,071 Climbing FlightAware ADS-B
Mon 01:16:35 PM 33.5610 -84.6950 185° South 293 337 9,900 375 Climbing FlightAware ADS-B
Mon 01:16:53 PM 33.5370 -84.6940 178° South 293 337 9,900 136 Level FlightAware ADS-B
Mon 01:17:19 PM 33.5020 -84.6870 171° South 296 341 10,000 107 Climbing FlightAware ADS-B
Mon 01:17:49 PM 33.4630 -84.6710 161° South 291 335 10,000  Level FlightAware ADS-B
Mon 01:18:17 PM 33.4260 -84.6580 164° South 295 339 10,000  Level FlightAware ADS-B
Mon 01:18:29 PM 33.4100 -84.6540 168° South 297 342 10,000 480 Level FlightAware ADS-B
Mon 01:19:07 PM 33.3580 -84.6400 167° South 321 369 10,400 1,857 Climbing FlightAware ADS-B
Mon 01:19:53 PM 33.2950 -84.6200 165° South 286 329 12,600 2,267 Climbing FlightAware ADS-B
Mon 01:20:37 PM 33.2390 -84.5930 158° South 313 360 13,800 1,371 Climbing FlightAware ADS-B
Mon 01:21:03 PM 33.2090 -84.5600 137° Southeast 353 406 14,200 1,114 Climbing FlightAware ADS-B
Mon 01:21:47 PM 33.1680 -84.4840 123° Southeast 387 445 15,100 1,379 Climbing FlightAware ADS-B
Mon 01:22:30 PM 33.1260 -84.4040 122° Southeast 407 468 16,200 1,590 Climbing FlightAware ADS-B
Mon 01:23:10 PM 33.0850 -84.3260 122° Southeast 420 483 17,300 1,786 Climbing FlightAware ADS-B
Mon 01:23:54 PM 33.0410 -84.2440 123° Southeast 425 489 18,700 1,875 Climbing FlightAware ADS-B
Mon 01:24:30 PM 32.9920 -84.1740 130° Southeast 423 487 19,800 1,714 Climbing FlightAware ADS-B
Mon 01:24:50 PM 32.9600 -84.1530 151° Southeast 423 487 20,300 1,500 Climbing FlightAware ADS-B
Mon 01:25:30 PM 32.8850 -84.1210 160° South 429 494 21,300 1,125 Climbing FlightAware ADS-B
Mon 01:26:42 PM 32.7570 -84.0680 161° South 438 504 22,400 617 Climbing FlightAware ADS-B
Mon 01:27:17 PM 32.7010 -84.0440 160° South 438 504 22,400 2,222 Level FlightAware ADS-B
Mon 01:28:03 PM 32.5880 -83.9990 161° South 446 513 25,400 2,733 Climbing FlightAware ADS-B
Mon 01:28:47 PM 32.5050 -83.9650 161° South 446 513 26,500 1,000 Climbing FlightAware ADS-B
Mon 01:29:27 PM 32.4220 -83.9310 161° South 463 533 26,800 795 Climbing FlightAware ADS-B
Mon 01:30:10 PM 32.3400 -83.8970 161° South 469 540 27,600 1,116 Climbing FlightAware ADS-B
Mon 01:30:53 PM 32.2470 -83.8590 161° South 475 547 28,400 535 Climbing FlightAware ADS-B
Mon 01:31:51 PM 32.1430 -83.8150 160° South 475 547 28,500 64 Climbing FlightAware ADS-B
Mon 01:32:27 PM 32.0800 -83.7880 160° South 475 547 28,500  Level FlightAware ADS-B
Mon 01:33:19 PM 31.9880 -83.7480 160° South 475 547 28,500  Level FlightAware ADS-B
Mon 01:34:08 PM 31.9020 -83.7120 160° South 475 547 28,500  Level FlightAware ADS-B
Mon 01:34:44 PM 31.8390 -83.6840 159° South 475 547 28,500 2,419 Level FlightAware ADS-B
Mon 01:35:10 PM 31.7278 -83.6497 159° South 473 544 31,000 1,744 Climbing Jacksonville Center
Mon 01:36:10 PM 31.5842 -83.5975 163° South 477 549 31,000  Level Jacksonville Center
Mon 01:37:10 PM 31.4592 -83.5478 161° South 482 555 31,000  Level Jacksonville Center
Mon 01:38:10 PM 31.3342 -83.4981 161° South 477 549 31,000  Level Jacksonville Center
Mon 01:39:10 PM 31.2156 -83.4247 152° Southeast 477 549 31,000  Level Jacksonville Center
Mon 01:40:10 PM 31.0925 -83.3850 165° South 477 549 31,000  Level Jacksonville Center
Mon 01:41:10 PM 30.9653 -83.3383 163° South 470 541 31,000  Level Jacksonville Center
Mon 01:42:10 PM 30.8506 -83.2603 150° Southeast 465 535 31,000 -500 Level Jacksonville Center
Mon 01:43:10 PM 30.7486 -83.1875 148° Southeast 471 542 30,000 -1,900 Descending Jacksonville Center
Mon 01:44:10 PM 30.6317 -83.1122 151° Southeast 477 549 27,200 -1,500 Descending Jacksonville Center
Mon 01:45:10 PM 30.5253 -83.0156 142° Southeast 482 555 27,000 -200 Descending Jacksonville Center
Mon 01:46:10 PM 30.4147 -82.9022 139° Southeast 487 560 26,800 -312 Descending Jacksonville Center
Mon 01:51:35 PM 29.8300 -82.3900 139° Southeast 483 556 25,000 -294 Descending FlightAware ADS-B
Mon 01:52:17 PM 29.7440 -82.3470 157° South 485 558 25,000 -72 Level FlightAware ADS-B
Mon 01:52:58 PM 29.6720 -82.3070 154° Southeast 479 551 24,900 -1,143 Descending FlightAware ADS-B
Mon 01:53:41 PM 29.5780 -82.2600 156° South 459 528 23,400 -1,579 Descending FlightAware ADS-B
Mon 01:54:33 PM 29.4850 -82.2140 157° South 453 521 22,400 -2,412 Descending FlightAware ADS-B
Mon 01:55:18 PM 29.3950 -82.1710 157° South 429 494 19,500 -3,068 Descending FlightAware ADS-B
Mon 01:56:01 PM 29.3160 -82.1320 157° South 414 476 17,900 -2,241 Descending FlightAware ADS-B
Mon 01:56:41 PM 29.2470 -82.1040 161° South 401 461 16,400 -2,071 Descending FlightAware ADS-B
Mon 01:57:25 PM 29.1730 -82.0640 155° Southeast 386 444 15,000 -1,389 Descending FlightAware ADS-B
Mon 01:58:16 PM 29.1010 -82.0260 155° Southeast 382 440 14,200 -1,636 Descending FlightAware ADS-B
Mon 01:59:04 PM 29.0190 -81.9860 157° South 375 432 12,300 -2,074 Descending FlightAware ADS-B
Mon 01:59:37 PM 28.9660 -81.9610 158° South 333 383 11,400 -1,286 Descending FlightAware ADS-B
Mon 02:00:00 PM 28.9370 -81.9380 145° Southeast 320 368 11,100 -400 Descending FlightAware ADS-B
Mon 02:00:37 PM 28.9060 -81.8870 125° Southeast 303 349 11,000 -75 Descending FlightAware ADS-B
Mon 02:01:20 PM 28.8780 -81.8360 122° Southeast 301 346 11,000 -594 Level FlightAware ADS-B
Mon 02:02:18 PM 28.8380 -81.7640 122° Southeast 297 342 10,000 -732 Descending FlightAware ADS-B
Mon 02:02:42 PM 28.8230 -81.7370 122° Southeast 297 342 10,000  Level FlightAware ADS-B
Mon 02:03:07 PM 28.8070 -81.7090 123° Southeast 297 342 10,000  Level FlightAware ADS-B
Mon 02:03:44 PM 28.7840 -81.6670 122° Southeast 297 342 10,000 -1,048 Level FlightAware ADS-B
Mon 02:04:10 PM 28.7553 -81.6328 122° Southeast 286 329 8,900 -1,811 Descending Jacksonville Center
Mon 02:04:37 PM 28.7500 -81.5833 97° East 241 277 8,400 -812 Descending Orlando TRACON
Mon 02:10:12 PM 28.6690 -81.3210 97° East 224 258 4,000 -773 Descending FlightAware ADS-B
Mon 02:10:42 PM 28.6360 -81.3190 177° South 227 261 3,700 -714 Descending FlightAware ADS-B
Mon 02:11:36 PM 28.5960 -81.3190 180° South 222 255 3,000 -741 Descending FlightAware ADS-B
Mon 02:12:03 PM 28.5810 -81.3190 180° South 211 243 2,700 -714 Descending FlightAware ADS-B
Mon 02:12:18 PM 28.5690 -81.3190 180° South 205 236 2,500 -732 Descending FlightAware ADS-B
Mon 02:12:44 PM 28.5540 -81.3190 180° South 188 216 2,200 -566 Descending FlightAware ADS-B
Mon 02:13:11 PM 28.5440 -81.3190 180° South 178 205 2,000 -218 Descending FlightAware ADS-B
Mon 02:13:39 PM 28.5240 -81.3190 180° South 178 205 2,000  Level FlightAware ADS-B

Login

Don't have an account? Register now (free) for customized features, flight alerts, and more!